Time;durP1;ratioP1;P1;durP2;ratioP2;P2;SDS_P1;SDS_P2;PMS_P1;PMS_P2;Temp;Humidity;BMP_temperature;BMP_pressure;BME280_temperature;BME280_humidity;BME280_pressure;Samples;Min_cycle;Max_cycle;Signal;HPM_P1;HPM_P2
2023/08/10 03:01:40;;;;;;;0.50;0.50;;;21.10;54.50;;;;;;5356336;23;45765;-82
2023/08/10 03:04:06;;;;;;;0.77;0.52;;;21.10;54.60;;;;;;4900308;28;44982;-81
2023/08/10 03:06:32;;;;;;;0.93;0.57;;;21.10;54.50;;;;;;4898087;28;45610;-86
2023/08/10 03:08:58;;;;;;;0.73;0.60;;;21.10;54.50;;;;;;4892584;28;47196;-84
2023/08/10 03:11:23;;;;;;;0.40;0.40;;;21.10;54.60;;;;;;4893159;28;45614;-84
2023/08/10 03:13:49;;;;;;;0.52;0.52;;;21.10;54.50;;;;;;4903755;28;45467;-87
2023/08/10 03:16:14;;;;;;;0.40;0.40;;;21.10;54.50;;;;;;4888604;28;45163;-84
2023/08/10 03:18:40;;;;;;;0.60;0.60;;;21.10;54.50;;;;;;4900964;28;47305;-83
2023/08/10 03:21:05;;;;;;;2.88;0.60;;;21.10;54.50;;;;;;4886283;28;45245;-83
2023/08/10 03:23:31;;;;;;;0.50;0.40;;;21.10;54.40;;;;;;4905400;28;45728;-84
2023/08/10 03:25:56;;;;;;;1.88;0.47;;;21.10;54.50;;;;;;4887367;28;45624;-84
2023/08/10 03:28:22;;;;;;;0.40;0.35;;;21.10;54.50;;;;;;4889619;28;46405;-83
2023/08/10 03:30:48;;;;;;;0.63;0.60;;;21.10;54.40;;;;;;4894009;28;45278;-85
2023/08/10 03:33:14;;;;;;;1.00;0.50;;;21.10;54.40;;;;;;4889210;28;45505;-84
2023/08/10 03:35:40;;;;;;;1.05;0.57;;;21.10;54.40;;;;;;4899854;28;45478;-85
2023/08/10 03:38:06;;;;;;;0.35;0.35;;;21.10;54.40;;;;;;4907761;28;48146;-83
2023/08/10 03:40:31;;;;;;;0.30;0.30;;;21.10;54.30;;;;;;4898500;28;50124;-85
2023/08/10 03:42:57;;;;;;;0.40;0.40;;;21.10;54.30;;;;;;4903350;28;44743;-84
2023/08/10 03:45:22;;;;;;;0.93;0.50;;;21.10;54.30;;;;;;4918852;28;45157;-84
2023/08/10 03:47:48;;;;;;;0.60;0.45;;;21.10;54.30;;;;;;4903048;28;47382;-84
2023/08/10 03:50:13;;;;;;;0.45;0.45;;;21.10;54.30;;;;;;4887934;28;44976;-86
2023/08/10 03:52:39;;;;;;;2.28;0.40;;;21.10;54.30;;;;;;4919987;28;44956;-85
2023/08/10 03:55:06;;;;;;;0.45;0.40;;;21.10;54.30;;;;;;4903579;28;45267;-83
2023/08/10 03:57:32;;;;;;;0.80;0.60;;;21.10;54.30;;;;;;4915805;28;46454;-85
2023/08/10 03:59:58;;;;;;;1.60;0.50;;;21.10;54.30;;;;;;4901442;28;45288;-86
2023/08/10 04:02:24;;;;;;;0.60;0.50;;;21.10;54.30;;;;;;4902024;28;45570;-84
2023/08/10 04:04:50;;;;;;;0.75;0.50;;;21.10;54.30;;;;;;4890797;28;45437;-83
2023/08/10 04:07:15;;;;;;;0.73;0.47;;;21.10;54.20;;;;;;4904129;28;47181;-80
2023/08/10 04:09:46;;;;;;;0.50;0.50;;;21.10;54.30;;;;;;4919411;28;44888;-85
2023/08/10 04:12:12;;;;;;;1.88;0.45;;;21.10;54.20;;;;;;4923957;28;45636;-85
2023/08/10 04:14:37;;;;;;;0.93;0.50;;;21.10;54.20;;;;;;4908788;28;44667;-84
2023/08/10 04:17:03;;;;;;;0.65;0.50;;;21.10;54.20;;;;;;4886284;28;48140;-86
2023/08/10 04:19:30;;;;;;;0.40;0.40;;;21.10;54.80;;;;;;4876479;28;45283;-84
2023/08/10 04:21:56;;;;;;;0.98;0.60;;;21.10;54.20;;;;;;4890884;28;44712;-83
2023/08/10 04:24:22;;;;;;;0.57;0.50;;;21.10;54.20;;;;;;4909542;28;45484;-84
2023/08/10 04:26:47;;;;;;;1.25;0.40;;;21.10;54.20;;;;;;4889742;28;46917;-82
2023/08/10 04:29:13;;;;;;;0.40;0.40;;;21.10;54.20;;;;;;4909198;28;45330;-85
2023/08/10 04:31:38;;;;;;;0.40;0.40;;;21.10;54.20;;;;;;4899862;28;45582;-85
2023/08/10 04:34:04;;;;;;;0.50;0.50;;;21.10;54.20;;;;;;4906282;28;45306;-85
2023/08/10 04:36:30;;;;;;;1.20;0.60;;;21.10;54.10;;;;;;4886710;28;46818;-84
2023/08/10 04:38:55;;;;;;;2.67;0.60;;;21.10;54.10;;;;;;4891961;28;45307;-84
2023/08/10 04:41:21;;;;;;;0.47;0.47;;;21.10;54.10;;;;;;4925872;28;45896;-82
2023/08/10 04:43:46;;;;;;;1.05;0.70;;;21.10;54.10;;;;;;4914104;28;44855;-82
2023/08/10 04:46:12;;;;;;;1.40;0.68;;;21.10;54.10;;;;;;4896944;28;45926;-85
2023/08/10 04:48:37;;;;;;;0.65;0.50;;;21.10;54.10;;;;;;4911909;28;45097;-83
2023/08/10 04:51:04;;;;;;;0.40;0.40;;;21.00;54.00;;;;;;4925040;28;45358;-83
2023/08/10 04:53:29;;;;;;;0.73;0.60;;;21.10;54.10;;;;;;4898249;28;45340;-81
2023/08/10 04:55:55;;;;;;;0.90;0.57;;;21.10;54.10;;;;;;4912101;28;46210;-83
2023/08/10 04:58:21;;;;;;;1.23;0.57;;;21.00;54.00;;;;;;4930617;28;45360;-84
2023/08/10 05:00:46;;;;;;;0.65;0.40;;;21.00;54.10;;;;;;4910527;28;45086;-83
2023/08/10 05:03:12;;;;;;;1.00;0.68;;;21.00;54.10;;;;;;4903873;28;45475;-83
2023/08/10 05:05:40;;;;;;;0.70;0.50;;;21.10;54.10;;;;;;4920783;28;47181;-82
2023/08/10 05:08:07;;;;;;;0.75;0.55;;;21.00;54.00;;;;;;4921431;28;45193;-85
2023/08/10 05:10:33;;;;;;;0.70;0.50;;;21.10;54.10;;;;;;4917600;28;45560;-83
2023/08/10 05:12:58;;;;;;;0.90;0.55;;;21.00;54.00;;;;;;4922794;28;44819;-84
2023/08/10 05:15:24;;;;;;;0.82;0.52;;;21.10;54.10;;;;;;4898167;28;46937;-84
2023/08/10 05:17:50;;;;;;;0.70;0.70;;;21.10;54.00;;;;;;4917374;28;45255;-83
2023/08/10 05:20:15;;;;;;;1.00;0.50;;;21.00;54.00;;;;;;4918055;28;45443;-85
2023/08/10 05:22:41;;;;;;;0.55;0.55;;;21.00;54.00;;;;;;4899436;28;45448;-85
2023/08/10 05:25:08;;;;;;;0.68;0.52;;;21.00;53.90;;;;;;4904938;28;47605;-84
2023/08/10 05:27:35;;;;;;;1.17;0.60;;;21.00;54.00;;;;;;4915109;28;46019;-82
2023/08/10 05:30:01;;;;;;;0.85;0.40;;;21.00;54.00;;;;;;4910089;28;45520;-83
2023/08/10 05:32:26;;;;;;;0.55;0.50;;;21.00;54.00;;;;;;4905275;28;45342;-86
2023/08/10 05:34:53;;;;;;;0.70;0.50;;;21.00;54.00;;;;;;4898899;28;46869;-83
2023/08/10 05:37:19;;;;;;;2.70;0.52;;;21.00;54.00;;;;;;4922978;28;46271;-86
2023/08/10 05:39:45;;;;;;;0.47;0.43;;;21.00;53.90;;;;;;4912841;28;45402;-83
2023/08/10 05:42:10;;;;;;;0.70;0.60;;;21.00;53.90;;;;;;4927124;28;44788;-84
2023/08/10 05:44:36;;;;;;;0.77;0.50;;;21.00;53.90;;;;;;4911663;28;46130;-84
2023/08/10 05:47:02;;;;;;;0.65;0.65;;;21.00;53.90;;;;;;4908198;28;46049;-86
2023/08/10 05:49:29;;;;;;;0.80;0.50;;;21.00;53.90;;;;;;4912399;28;45736;-83
2023/08/10 05:51:54;;;;;;;0.55;0.47;;;21.00;54.00;;;;;;4890972;28;45563;-84
2023/08/10 05:54:20;;;;;;;0.93;0.63;;;21.00;54.00;;;;;;4909681;28;45336;-83
2023/08/10 05:56:45;;;;;;;0.80;0.65;;;21.00;53.90;;;;;;4922417;28;44680;-83
2023/08/10 05:59:11;;;;;;;0.80;0.60;;;21.00;54.00;;;;;;4926618;28;45348;-81
2023/08/10 06:01:37;;;;;;;0.75;0.70;;;21.00;54.00;;;;;;4919367;28;45733;-85
2023/08/10 06:04:04;;;;;;;0.88;0.60;;;21.00;53.90;;;;;;4925564;28;45316;-84
2023/08/10 06:06:30;;;;;;;1.35;0.75;;;21.00;53.90;;;;;;4909001;28;45589;-82
2023/08/10 06:08:56;;;;;;;0.70;0.55;;;21.00;53.90;;;;;;4909218;28;45241;-83
2023/08/10 06:11:21;;;;;;;0.50;0.50;;;21.00;53.90;;;;;;4909433;28;45623;-84
2023/08/10 06:13:47;;;;;;;0.90;0.60;;;21.00;53.90;;;;;;4909227;28;47440;-85
2023/08/10 06:16:12;;;;;;;0.98;0.65;;;21.00;53.90;;;;;;4923227;28;44975;-86
2023/08/10 06:18:38;;;;;;;0.90;0.75;;;21.00;54.00;;;;;;4893822;28;45134;-84
2023/08/10 06:21:04;;;;;;;1.10;0.60;;;21.00;53.90;;;;;;4908884;28;45620;-83
2023/08/10 06:23:29;;;;;;;0.98;0.73;;;21.00;54.00;;;;;;4925369;28;46276;-83
2023/08/10 06:25:55;;;;;;;1.02;0.60;;;21.00;53.90;;;;;;4890968;28;45363;-84
2023/08/10 06:28:21;;;;;;;0.80;0.65;;;21.00;53.90;;;;;;4893120;28;44720;-82
2023/08/10 06:30:46;;;;;;;1.13;0.50;;;20.90;53.90;;;;;;4889616;28;45267;-83
2023/08/10 06:33:12;;;;;;;1.45;0.60;;;21.00;53.90;;;;;;4904215;28;45360;-84
2023/08/10 06:35:39;;;;;;;0.98;0.70;;;20.90;53.90;;;;;;4905830;28;45204;-84
2023/08/10 06:38:04;;;;;;;1.23;0.60;;;20.90;53.90;;;;;;4906309;28;45579;-82
2023/08/10 06:40:31;;;;;;;0.93;0.63;;;21.00;54.00;;;;;;4905658;28;44965;-84
2023/08/10 06:42:58;;;;;;;0.90;0.77;;;20.90;53.90;;;;;;4893302;28;47763;-82
2023/08/10 06:45:23;;;;;;;0.80;0.55;;;20.90;53.90;;;;;;4905430;28;45774;-81
2023/08/10 06:47:49;;;;;;;3.05;0.70;;;20.90;53.90;;;;;;4921968;28;45299;-83
2023/08/10 06:50:16;;;;;;;0.70;0.70;;;20.90;53.90;;;;;;4928002;28;45031;-82
2023/08/10 06:52:41;;;;;;;1.33;0.70;;;20.90;53.90;;;;;;4881266;28;47325;-82
2023/08/10 06:55:07;;;;;;;1.70;0.77;;;20.90;53.90;;;;;;4898233;28;44793;-84
2023/08/10 06:57:34;;;;;;;0.50;0.40;;;20.90;53.90;;;;;;4916528;28;45294;-86
2023/08/10 07:00:02;;;;;;;0.70;0.70;;;20.90;53.90;;;;;;4908043;28;46646;-81
2023/08/10 07:02:31;;;;;;;0.90;0.73;;;20.90;53.90;;;;;;4903040;28;45964;-83
2023/08/10 07:04:57;;;;;;;0.70;0.57;;;20.90;53.90;;;;;;4893223;28;45223;-81
2023/08/10 07:07:22;;;;;;;0.60;0.60;;;20.90;53.90;;;;;;4906824;28;45407;-83
2023/08/10 07:09:48;;;;;;;1.00;0.65;;;20.90;53.90;;;;;;4907696;28;45446;-81
2023/08/10 07:12:14;;;;;;;0.65;0.60;;;20.90;54.00;;;;;;4887339;28;46285;-87
2023/08/10 07:14:39;;;;;;;0.98;0.73;;;20.90;53.90;;;;;;4907308;28;45170;-82
2023/08/10 07:17:05;;;;;;;0.95;0.60;;;20.90;53.90;;;;;;4888486;28;46533;-83
2023/08/10 07:19:30;;;;;;;0.70;0.70;;;20.90;53.90;;;;;;4907206;28;44894;-82
2023/08/10 07:21:56;;;;;;;0.98;0.50;;;20.90;53.90;;;;;;4890803;28;47095;-83
2023/08/10 07:24:22;;;;;;;1.35;0.65;;;20.90;54.00;;;;;;4890584;28;45559;-82
2023/08/10 07:26:48;;;;;;;1.02;0.70;;;20.90;54.00;;;;;;4888193;28;45332;-82
2023/08/10 07:29:14;;;;;;;1.00;0.70;;;20.90;54.00;;;;;;4905842;28;45108;-82
2023/08/10 07:31:39;;;;;;;0.80;0.63;;;20.90;54.00;;;;;;4902816;28;48064;-82
2023/08/10 07:34:05;;;;;;;0.73;0.60;;;20.90;54.00;;;;;;4922124;28;44963;-83
2023/08/10 07:36:30;;;;;;;0.80;0.70;;;20.90;54.00;;;;;;4889994;28;45659;-83
2023/08/10 07:38:56;;;;;;;0.95;0.70;;;20.90;54.00;;;;;;4889612;28;45547;-81
2023/08/10 07:41:22;;;;;;;0.70;0.70;;;20.90;54.00;;;;;;4888439;28;47213;-81
2023/08/10 07:43:48;;;;;;;1.23;0.70;;;20.90;54.00;;;;;;4889540;28;45085;-82
2023/08/10 07:46:13;;;;;;;0.70;0.60;;;20.90;54.00;;;;;;4886357;28;45391;-81
2023/08/10 07:48:39;;;;;;;0.50;0.50;;;20.90;54.00;;;;;;4920230;28;45345;-81
2023/08/10 07:51:05;;;;;;;0.63;0.60;;;20.90;54.00;;;;;;4889152;28;47237;-85
2023/08/10 07:53:32;;;;;;;0.98;0.77;;;20.90;54.00;;;;;;4895446;28;45075;-82
2023/08/10 07:55:58;;;;;;;1.30;0.70;;;20.90;54.00;;;;;;4919409;28;45054;-83
2023/08/10 07:58:23;;;;;;;0.52;0.52;;;20.90;54.00;;;;;;4891838;28;45730;-83
2023/08/10 08:00:49;;;;;;;1.92;0.70;;;20.90;54.00;;;;;;4916886;28;45591;-82
2023/08/10 08:03:15;;;;;;;1.00;0.70;;;20.90;54.00;;;;;;4889920;28;44685;-81
2023/08/10 08:05:40;;;;;;;1.48;0.80;;;20.90;54.00;;;;;;4900291;28;45517;-89
2023/08/10 08:08:07;;;;;;;0.73;0.50;;;20.90;54.00;;;;;;4906402;28;44855;-83
2023/08/10 08:10:35;;;;;;;0.52;0.45;;;20.90;54.00;;;;;;4905042;28;46360;-82
2023/08/10 08:13:03;;;;;;;1.13;0.70;;;20.90;54.00;;;;;;4889387;28;45458;-82
2023/08/10 08:15:32;;;;;;;1.08;0.52;;;20.90;54.00;;;;;;4902938;28;44807;-85
2023/08/10 08:18:37;;;;;;;0.63;0.40;;;20.90;54.00;;;;;;4905136;28;45608;-83
2023/08/10 08:21:07;;;;;;;0.77;0.52;;;20.90;53.90;;;;;;4917859;28;46947;-83
2023/08/10 08:23:32;;;;;;;1.00;0.60;;;20.90;54.00;;;;;;4909311;28;45548;-81
2023/08/10 08:25:58;;;;;;;1.02;0.70;;;20.90;54.00;;;;;;4889756;28;45256;-84
2023/08/10 08:28:23;;;;;;;0.75;0.60;;;20.90;54.00;;;;;;4896361;28;44765;-82
2023/08/10 08:30:50;;;;;;;0.57;0.55;;;20.90;54.00;;;;;;4883612;28;45689;-83
2023/08/10 08:33:16;;;;;;;0.50;0.43;;;20.90;54.00;;;;;;4891556;28;46365;-82
2023/08/10 08:35:45;;;;;;;0.60;0.50;;;20.90;54.00;;;;;;4870933;28;45245;-82
2023/08/10 08:38:10;;;;;;;1.70;0.80;;;20.90;54.00;;;;;;4921327;28;45521;-82
2023/08/10 08:40:36;;;;;;;0.90;0.68;;;20.90;54.00;;;;;;4903884;28;46780;-82
2023/08/10 08:43:02;;;;;;;0.70;0.60;;;20.90;54.00;;;;;;4921374;28;45474;-83
2023/08/10 08:45:28;;;;;;;0.73;0.60;;;20.90;54.00;;;;;;4917098;28;44765;-84
2023/08/10 08:47:54;;;;;;;0.77;0.70;;;20.90;54.00;;;;;;4886999;28;45205;-82
2023/08/10 08:50:19;;;;;;;1.95;0.75;;;20.90;54.00;;;;;;4901821;28;48192;-85
2023/08/10 08:52:45;;;;;;;1.42;0.70;;;20.90;54.00;;;;;;4906919;28;45385;-90
2023/08/10 08:55:11;;;;;;;0.88;0.60;;;20.90;54.00;;;;;;4919630;28;46440;-83
2023/08/10 08:57:37;;;;;;;0.70;0.50;;;20.90;54.00;;;;;;4907161;28;45280;-81
2023/08/10 09:00:04;;;;;;;1.10;0.70;;;20.90;54.00;;;;;;4886502;28;45478;-87
2023/08/10 09:02:30;;;;;;;1.25;0.82;;;20.90;54.10;;;;;;4890295;28;44755;-84
2023/08/10 09:04:59;;;;;;;0.57;0.57;;;20.90;54.00;;;;;;4870654;28;45703;-87
2023/08/10 09:07:26;;;;;;;2.72;0.93;;;20.90;54.00;;;;;;4873603;28;45636;-82
2023/08/10 09:09:52;;;;;;;0.60;0.60;;;20.90;54.00;;;;;;4909863;28;46335;-81
2023/08/10 09:12:47;;;;;;;0.95;0.70;;;20.90;54.00;;;;;;4905286;28;45366;-83
2023/08/10 09:15:18;;;;;;;0.75;0.57;;;20.90;54.00;;;;;;4909836;28;45321;-84
2023/08/10 09:17:48;;;;;;;0.83;0.67;;;20.90;54.10;;;;;;4905109;28;45675;-86
2023/08/10 09:20:29;;;;;;;0.95;0.77;;;20.90;54.10;;;;;;4888291;28;46323;-87
2023/08/10 09:22:56;;;;;;;0.75;0.50;;;20.90;54.10;;;;;;4920371;28;45996;-83
2023/08/10 09:25:21;;;;;;;0.85;0.63;;;20.90;54.10;;;;;;4920853;28;45725;-81
2023/08/10 09:27:47;;;;;;;0.75;0.40;;;20.90;54.10;;;;;;4905203;28;44971;-88
2023/08/10 09:30:14;;;;;;;0.50;0.50;;;20.90;54.00;;;;;;4906224;28;46330;-89
2023/08/10 09:32:40;;;;;;;0.80;0.52;;;20.90;54.10;;;;;;4893008;28;45254;-81
2023/08/10 09:35:06;;;;;;;0.60;0.60;;;20.90;54.10;;;;;;4911942;28;44623;-85
2023/08/10 09:37:32;;;;;;;1.17;0.77;;;20.90;54.10;;;;;;4891040;28;45573;-83
2023/08/10 09:40:00;;;;;;;1.10;0.60;;;21.00;54.10;;;;;;4906624;28;45232;-85
2023/08/10 09:42:29;;;;;;;0.80;0.50;;;21.00;54.10;;;;;;4905949;28;46082;-82
2023/08/10 09:44:54;;;;;;;0.88;0.68;;;20.90;54.10;;;;;;4925318;28;45249;-84
2023/08/10 09:47:20;;;;;;;0.60;0.50;;;20.90;54.10;;;;;;4906744;28;45466;-81
2023/08/10 09:50:01;;;;;;;0.70;0.50;;;21.00;54.10;;;;;;4906922;28;45625;-82
2023/08/10 09:52:27;;;;;;;0.52;0.40;;;21.00;54.10;;;;;;4911781;28;45370;-82
2023/08/10 09:54:55;;;;;;;0.90;0.55;;;21.00;54.10;;;;;;4912257;28;45631;-83
2023/08/10 09:57:20;;;;;;;0.50;0.50;;;20.90;54.10;;;;;;4912089;28;45492;-84
2023/08/10 09:59:46;;;;;;;0.63;0.40;;;21.00;54.10;;;;;;4908325;28;45494;-82
2023/08/10 10:02:12;;;;;;;0.90;0.50;;;21.00;54.10;;;;;;4902593;28;46735;-84
2023/08/10 10:04:42;;;;;;;0.65;0.45;;;21.00;54.10;;;;;;4909380;28;46983;-81
2023/08/10 10:07:08;;;;;;;1.23;0.60;;;21.00;54.10;;;;;;4907824;28;45184;-82
2023/08/10 10:09:39;;;;;;;0.75;0.50;;;21.00;54.10;;;;;;4899483;28;47389;-84
2023/08/10 10:12:14;;;;;;;0.98;0.60;;;21.00;54.10;;;;;;4873365;28;45865;-82
2023/08/10 10:14:44;;;;;;;0.50;0.40;;;21.00;54.10;;;;;;4894085;28;45404;-82
2023/08/10 10:17:11;;;;;;;0.73;0.50;;;21.00;54.10;;;;;;4907746;28;45343;-83
2023/08/10 10:19:37;;;;;;;1.40;0.70;;;21.00;54.10;;;;;;4909530;28;46963;-84
2023/08/10 10:22:03;;;;;;;0.63;0.40;;;21.00;54.10;;;;;;4898398;28;45304;-82
2023/08/10 10:24:31;;;;;;;0.52;0.40;;;21.00;54.20;;;;;;4907410;28;45173;-84
2023/08/10 10:26:58;;;;;;;0.40;0.40;;;21.00;54.20;;;;;;4918662;28;44766;-83
2023/08/10 10:29:34;;;;;;;0.73;0.70;;;21.00;54.10;;;;;;4890259;28;47226;-82
2023/08/10 10:32:10;;;;;;;1.25;0.70;;;21.00;54.10;;;;;;4885872;28;45115;-83
2023/08/10 10:34:37;;;;;;;0.70;0.50;;;21.00;54.10;;;;;;4896160;28;44957;-84
2023/08/10 10:37:34;;;;;;;0.70;0.60;;;21.00;54.20;;;;;;4885801;28;45399;-83
2023/08/10 10:40:14;;;;;;;1.30;0.52;;;21.00;54.10;;;;;;4913631;28;46061;-84
2023/08/10 10:43:05;;;;;;;0.80;0.55;;;21.00;54.10;;;;;;4902905;28;45400;-83
2023/08/10 10:45:40;;;;;;;0.98;0.60;;;21.00;54.10;;;;;;4899004;28;45449;-81
2023/08/10 10:48:06;;;;;;;0.73;0.57;;;21.00;54.10;;;;;;4905306;28;45812;-82
2023/08/10 10:50:32;;;;;;;1.75;0.50;;;21.00;54.20;;;;;;4884383;28;47212;-84
2023/08/10 10:53:13;;;;;;;0.68;0.60;;;21.00;54.20;;;;;;4887939;28;45193;-81
2023/08/10 10:55:44;;;;;;;0.75;0.45;;;21.00;54.10;;;;;;4902916;28;45068;-84
2023/08/10 10:58:11;;;;;;;1.05;0.60;;;21.00;54.20;;;;;;4938449;28;44670;-82
2023/08/10 11:00:37;;;;;;;0.73;0.63;;;21.00;54.20;;;;;;4917170;28;45425;-82
2023/08/10 11:03:07;;;;;;;1.42;0.65;;;21.00;54.20;;;;;;4902550;28;44960;-83
2023/08/10 11:05:33;;;;;;;0.75;0.50;;;21.00;54.20;;;;;;4919368;28;45324;-84
2023/08/10 11:08:03;;;;;;;0.82;0.50;;;21.00;54.20;;;;;;4889747;28;45252;-82
2023/08/10 11:10:34;;;;;;;0.55;0.55;;;21.10;54.30;;;;;;4901885;28;47425;-82
2023/08/10 11:13:00;;;;;;;1.13;0.70;;;21.00;54.40;;;;;;4920369;28;44806;-83
2023/08/10 11:15:25;;;;;;;1.15;0.65;;;21.10;54.20;;;;;;4903039;28;45484;-81
2023/08/10 11:17:53;;;;;;;0.50;0.43;;;21.00;54.20;;;;;;4917736;28;45146;-83
2023/08/10 11:20:20;;;;;;;0.85;0.60;;;21.10;54.20;;;;;;4887679;28;47340;-87
2023/08/10 11:22:49;;;;;;;1.10;0.70;;;21.10;54.50;;;;;;4887310;28;45455;-85
2023/08/10 11:25:15;;;;;;;1.00;0.38;;;21.10;54.20;;;;;;4887940;28;45485;-85
2023/08/10 11:27:42;;;;;;;0.55;0.40;;;21.10;54.80;;;;;;4906870;28;45711;-83
2023/08/10 11:30:09;;;;;;;0.50;0.50;;;21.10;54.20;;;;;;4907251;28;46990;-87
2023/08/10 11:32:40;;;;;;;0.65;0.45;;;21.10;54.30;;;;;;4899517;28;44744;-83
2023/08/10 11:35:09;;;;;;;0.55;0.52;;;21.10;54.20;;;;;;4913127;28;45357;-86
2023/08/10 11:37:36;;;;;;;0.70;0.57;;;21.10;54.20;;;;;;4904069;28;45700;-81
2023/08/10 11:40:11;;;;;;;0.40;0.40;;;21.10;54.20;;;;;;4931361;28;45557;-87
2023/08/10 11:42:41;;;;;;;0.68;0.65;;;21.10;54.80;;;;;;4906656;28;45266;-82
2023/08/10 11:45:19;;;;;;;0.70;0.68;;;21.10;54.30;;;;;;4903549;28;45274;-86
2023/08/10 11:47:46;;;;;;;0.70;0.50;;;21.10;54.20;;;;;;4903642;28;45543;-85
2023/08/10 11:50:13;;;;;;;1.23;0.57;;;21.10;54.30;;;;;;4872487;28;47382;-86
2023/08/10 11:52:42;;;;;;;1.58;0.50;;;21.10;54.30;;;;;;4886591;28;45727;-83
2023/08/10 11:55:12;;;;;;;1.17;0.60;;;21.10;54.30;;;;;;4918663;28;45523;-82
2023/08/10 11:57:42;;;;;;;0.80;0.43;;;21.10;54.20;;;;;;4894158;28;44757;-84
2023/08/10 12:00:38;;;;;;;0.70;0.40;;;21.10;54.30;;;;;;4920099;28;45606;-83
2023/08/10 12:03:23;;;;;;;0.52;0.43;;;21.10;54.20;;;;;;4904739;28;45311;-81
2023/08/10 12:05:50;;;;;;;0.80;0.57;;;21.10;54.30;;;;;;4903213;28;45277;-82
2023/08/10 12:08:19;;;;;;;0.80;0.60;;;21.10;54.30;;;;;;4920243;28;45321;-84
2023/08/10 12:10:51;;;;;;;0.55;0.50;;;21.10;54.30;;;;;;4882924;28;47063;-84
2023/08/10 12:13:18;;;;;;;1.30;0.47;;;21.10;54.30;;;;;;4890951;28;45521;-83
2023/08/10 12:15:46;;;;;;;0.90;0.60;;;21.10;54.30;;;;;;4919491;28;45371;-81
2023/08/10 12:18:11;;;;;;;1.13;0.70;;;21.10;54.30;;;;;;4920753;28;44989;-84
2023/08/10 12:20:37;;;;;;;0.40;0.40;;;21.10;54.20;;;;;;4900908;28;46448;-82
2023/08/10 12:23:03;;;;;;;0.95;0.60;;;21.20;54.30;;;;;;4905655;28;45774;-84
2023/08/10 12:25:29;;;;;;;1.45;0.60;;;21.20;54.30;;;;;;4891210;28;45334;-83
2023/08/10 12:27:54;;;;;;;0.77;0.57;;;21.10;54.30;;;;;;4905819;28;46042;-81
2023/08/10 12:30:20;;;;;;;0.60;0.60;;;21.10;54.30;;;;;;4917958;28;45512;-82
2023/08/10 12:32:45;;;;;;;0.52;0.52;;;21.10;54.30;;;;;;4905014;28;45482;-83
2023/08/10 12:35:12;;;;;;;0.60;0.60;;;21.20;54.30;;;;;;4874446;28;44721;-83
2023/08/10 12:37:37;;;;;;;1.23;0.93;;;21.20;54.30;;;;;;4876233;28;45359;-82
2023/08/10 12:40:05;;;;;;;0.70;0.60;;;21.10;54.30;;;;;;4887723;28;47396;-86
2023/08/10 12:42:30;;;;;;;1.45;0.70;;;21.20;54.30;;;;;;4887448;28;44878;-81
2023/08/10 12:44:56;;;;;;;0.45;0.40;;;21.20;54.30;;;;;;4922241;28;45091;-83
2023/08/10 12:47:22;;;;;;;0.50;0.50;;;21.20;54.30;;;;;;4884449;28;45214;-82
2023/08/10 12:49:47;;;;;;;1.00;0.70;;;21.20;54.30;;;;;;4903359;28;48099;-82
2023/08/10 12:52:13;;;;;;;0.77;0.50;;;21.20;54.30;;;;;;4896833;28;45349;-82
2023/08/10 12:54:38;;;;;;;0.90;0.52;;;21.20;54.30;;;;;;4926131;28;45243;-82
2023/08/10 12:57:04;;;;;;;0.50;0.50;;;21.20;54.30;;;;;;4904465;28;45261;-87
2023/08/10 12:59:29;;;;;;;0.55;0.50;;;21.20;54.20;;;;;;4874293;28;47001;-82
2023/08/10 13:01:55;;;;;;;0.45;0.45;;;21.20;54.20;;;;;;4888600;28;45249;-84
2023/08/10 13:04:20;;;;;;;0.55;0.55;;;21.20;54.30;;;;;;4900312;28;44678;-82
2023/08/10 13:06:46;;;;;;;0.60;0.60;;;21.20;54.20;;;;;;4891321;28;45237;-84
2023/08/10 13:09:11;;;;;;;0.75;0.40;;;21.20;54.30;;;;;;4923389;28;45633;-83
2023/08/10 13:11:37;;;;;;;1.00;0.45;;;21.20;54.20;;;;;;4906656;28;44901;-82
2023/08/10 13:14:04;;;;;;;1.10;0.50;;;21.20;54.20;;;;;;4891932;28;46381;-84
2023/08/10 13:16:29;;;;;;;0.60;0.60;;;21.20;54.20;;;;;;4920258;28;45128;-83
2023/08/10 13:18:55;;;;;;;1.60;0.60;;;21.20;54.20;;;;;;4907631;28;45596;-83
2023/08/10 13:21:20;;;;;;;0.65;0.50;;;21.20;54.20;;;;;;4904916;28;45611;-83
2023/08/10 13:23:46;;;;;;;2.10;0.70;;;21.20;54.20;;;;;;4891361;28;44709;-82
2023/08/10 13:26:12;;;;;;;2.05;0.80;;;21.20;54.20;;;;;;4909640;28;45255;-83
2023/08/10 13:28:38;;;;;;;0.60;0.60;;;21.30;54.30;;;;;;4891254;28;45400;-83
2023/08/10 13:31:03;;;;;;;0.50;0.50;;;21.20;54.30;;;;;;4890501;28;45682;-82
2023/08/10 13:33:29;;;;;;;0.70;0.70;;;21.20;54.20;;;;;;4889627;28;44726;-83
2023/08/10 13:35:54;;;;;;;1.02;0.70;;;21.20;54.20;;;;;;4906379;28;45653;-83
2023/08/10 13:38:20;;;;;;;0.82;0.60;;;21.20;54.20;;;;;;4876069;28;47397;-83
2023/08/10 13:40:45;;;;;;;0.68;0.57;;;21.20;54.20;;;;;;4877071;28;45317;-83
2023/08/10 13:43:11;;;;;;;1.17;0.70;;;21.20;54.30;;;;;;4907613;28;45587;-83
2023/08/10 13:45:37;;;;;;;0.57;0.57;;;21.20;54.30;;;;;;4889823;28;45501;-83
2023/08/10 13:48:03;;;;;;;0.73;0.47;;;21.20;54.20;;;;;;4919670;28;46041;-82
2023/08/10 13:50:28;;;;;;;0.70;0.70;;;21.20;54.30;;;;;;4894530;28;44710;-83
2023/08/10 13:52:54;;;;;;;0.77;0.60;;;21.30;54.30;;;;;;4907338;28;44775;-83
2023/08/10 13:55:20;;;;;;;0.77;0.70;;;21.30;54.30;;;;;;4876357;28;45466;-82
2023/08/10 13:57:45;;;;;;;1.63;0.70;;;21.30;54.30;;;;;;4891636;28;47308;-84
2023/08/10 14:00:13;;;;;;;0.50;0.50;;;21.20;54.30;;;;;;4911848;28;45084;-85
2023/08/10 14:02:39;;;;;;;0.65;0.60;;;21.20;54.90;;;;;;4878537;28;44783;-84
2023/08/10 14:05:06;;;;;;;0.70;0.60;;;21.20;54.30;;;;;;4893012;28;45669;-87
2023/08/10 14:07:31;;;;;;;0.50;0.50;;;21.30;54.30;;;;;;4910030;28;45473;-82
2023/08/10 14:09:57;;;;;;;0.55;0.50;;;21.30;54.40;;;;;;4894736;28;45579;-82
2023/08/10 14:12:23;;;;;;;0.98;0.70;;;21.30;54.40;;;;;;4890508;28;45055;-82
2023/08/10 14:14:48;;;;;;;0.80;0.70;;;21.30;54.30;;;;;;4892247;28;46111;-83
2023/08/10 14:17:14;;;;;;;0.70;0.70;;;21.30;54.40;;;;;;4917676;28;47353;-82
2023/08/10 14:19:39;;;;;;;3.42;0.68;;;21.30;54.30;;;;;;4907371;28;46093;-84
2023/08/10 14:22:05;;;;;;;0.55;0.55;;;21.30;54.40;;;;;;4889221;28;45665;-82
2023/08/10 14:24:30;;;;;;;0.60;0.60;;;21.20;54.30;;;;;;4904201;28;45568;-84
2023/08/10 14:26:56;;;;;;;0.57;0.57;;;21.30;54.40;;;;;;4905723;28;45978;-82
2023/08/10 14:29:22;;;;;;;0.70;0.60;;;21.30;54.40;;;;;;4903280;28;45376;-82
2023/08/10 14:31:48;;;;;;;0.60;0.60;;;21.30;54.40;;;;;;4886990;28;45208;-82
2023/08/10 14:34:13;;;;;;;0.55;0.55;;;21.20;54.30;;;;;;4901762;28;45337;-82
2023/08/10 14:36:39;;;;;;;0.90;0.70;;;21.30;54.40;;;;;;4884007;28;46965;-82
2023/08/10 14:39:04;;;;;;;0.60;0.50;;;21.30;54.40;;;;;;4901870;28;44976;-83
2023/08/10 14:41:30;;;;;;;1.27;0.80;;;21.30;54.40;;;;;;4899280;28;45327;-82
2023/08/10 14:43:56;;;;;;;0.57;0.47;;;21.30;54.40;;;;;;4900341;28;44775;-82
2023/08/10 14:46:22;;;;;;;0.68;0.60;;;21.30;54.40;;;;;;4881488;28;47405;-83
2023/08/10 14:48:48;;;;;;;0.60;0.60;;;21.30;54.40;;;;;;4901658;28;45371;-81
2023/08/10 14:51:13;;;;;;;0.50;0.50;;;21.30;54.40;;;;;;4900626;28;45354;-82
2023/08/10 14:53:39;;;;;;;0.60;0.40;;;21.30;54.40;;;;;;4899304;28;45693;-84
2023/08/10 14:56:04;;;;;;;1.15;0.70;;;21.30;54.40;;;;;;4883215;28;47221;-82
2023/08/10 14:58:30;;;;;;;0.68;0.60;;;21.30;54.40;;;;;;4888300;28;45302;-82
2023/08/10 15:00:56;;;;;;;0.77;0.60;;;21.30;54.40;;;;;;4896615;28;45010;-81
2023/08/10 15:03:22;;;;;;;0.60;0.60;;;21.30;54.40;;;;;;4919317;28;45895;-83
2023/08/10 15:05:47;;;;;;;0.50;0.50;;;21.30;54.40;;;;;;4895387;28;45389;-82
2023/08/10 15:08:13;;;;;;;0.47;0.47;;;21.30;54.40;;;;;;4903204;28;45483;-81
2023/08/10 15:10:38;;;;;;;1.52;0.60;;;21.30;54.40;;;;;;4900644;28;45555;-81
2023/08/10 15:13:04;;;;;;;0.55;0.50;;;21.30;54.40;;;;;;4888098;28;45098;-81
2023/08/10 15:15:30;;;;;;;0.70;0.60;;;21.30;54.40;;;;;;4893982;28;47072;-82
2023/08/10 15:17:55;;;;;;;0.63;0.60;;;21.30;54.40;;;;;;4897744;28;45689;-82
2023/08/10 15:20:21;;;;;;;0.63;0.60;;;21.30;54.40;;;;;;4899407;28;44755;-83
2023/08/10 15:22:46;;;;;;;0.75;0.70;;;21.30;54.40;;;;;;4897327;28;46274;-82
2023/08/10 15:25:15;;;;;;;1.90;0.80;;;21.30;54.40;;;;;;4915572;28;47586;-82
2023/08/10 15:27:42;;;;;;;1.17;0.63;;;21.30;54.40;;;;;;4902874;28;45327;-81
2023/08/10 15:30:08;;;;;;;1.20;0.70;;;21.30;54.40;;;;;;4891915;28;45314;-82
2023/08/10 15:32:37;;;;;;;0.60;0.60;;;21.30;54.40;;;;;;4880755;28;45474;-82
2023/08/10 15:35:05;;;;;;;0.60;0.60;;;21.30;54.40;;;;;;4880656;28;47252;-85
2023/08/10 15:37:32;;;;;;;1.05;0.65;;;21.30;54.40;;;;;;4897618;28;45762;-81
2023/08/10 15:39:58;;;;;;;1.23;0.70;;;21.30;54.50;;;;;;4899796;28;45556;-82
2023/08/10 15:42:24;;;;;;;0.80;0.60;;;21.30;54.40;;;;;;4895958;28;45502;-82
2023/08/10 15:44:49;;;;;;;1.20;0.65;;;21.30;54.40;;;;;;4900155;28;48038;-82
2023/08/10 15:47:15;;;;;;;0.80;0.65;;;21.30;54.40;;;;;;4909955;28;45249;-82